createdAt,value
2018-05-12T00:00:17.017Z,25.23
2018-05-12T00:02:46.625Z,24.48
2018-05-12T00:05:15.817Z,28.50
2018-05-12T00:07:45.326Z,25.27
2018-05-12T00:10:14.813Z,26.45
2018-05-12T00:12:43.537Z,25.65
2018-05-12T00:15:13.009Z,27.67
2018-05-12T00:17:41.764Z,28.52
2018-05-12T00:20:10.484Z,27.58
2018-05-12T00:22:38.857Z,28.25
2018-05-12T00:25:07.581Z,29.00
2018-05-12T00:27:36.821Z,28.67
2018-05-12T00:30:04.881Z,28.92
2018-05-12T00:32:33.274Z,27.50
2018-05-12T00:35:02.768Z,28.02
2018-05-12T00:37:31.481Z,27.95
2018-05-12T00:39:59.981Z,28.62
2018-05-12T00:42:28.681Z,29.37
2018-05-12T00:44:58.158Z,28.70
2018-05-12T00:47:26.879Z,31.33
2018-05-12T00:49:56.038Z,28.62
2018-05-12T00:52:24.760Z,29.60
2018-05-12T00:54:53.468Z,28.05
2018-05-12T00:57:22.630Z,31.08
2018-05-12T00:59:51.328Z,28.52
2018-05-12T01:02:20.044Z,29.83
2018-05-12T01:04:48.745Z,29.63
2018-05-12T01:07:17.457Z,31.98
2018-05-12T01:09:46.157Z,29.08
2018-05-12T01:12:14.869Z,30.35
2018-05-12T01:14:43.232Z,29.98
2018-05-12T01:17:11.982Z,31.35
2018-05-12T01:19:40.709Z,31.62
2018-05-12T01:22:09.426Z,32.17
2018-05-12T01:24:38.693Z,31.42
2018-05-12T01:27:07.426Z,32.42
2018-05-12T01:29:35.801Z,32.53
2018-05-12T01:32:03.865Z,32.65
2018-05-12T01:34:33.332Z,32.80
2018-05-12T01:37:02.098Z,33.72
2018-05-12T01:39:30.836Z,34.10
2018-05-12T01:41:59.564Z,31.17
2018-05-12T01:44:29.041Z,32.40
2018-05-12T01:46:58.530Z,29.50
2018-05-12T01:49:27.242Z,33.05
2018-05-12T01:51:56.725Z,32.67
2018-05-12T01:54:26.211Z,33.00
2018-05-12T01:56:55.657Z,33.53
2018-05-12T01:59:25.134Z,33.72
2018-05-12T02:01:53.536Z,31.77
2018-05-12T02:04:23.017Z,32.92
2018-05-12T02:06:51.757Z,35.28
2018-05-12T02:09:20.470Z,33.88
2018-05-12T02:11:49.177Z,34.20
2018-05-12T02:14:17.904Z,35.28
2018-05-12T02:16:46.626Z,34.05
2018-05-12T02:19:15.356Z,33.75
2018-05-12T02:21:44.854Z,34.75
2018-05-12T02:24:13.573Z,33.88
2018-05-12T02:26:42.291Z,35.78
2018-05-12T02:29:11.344Z,35.13
2018-05-12T02:31:40.861Z,34.78
2018-05-12T02:34:09.574Z,34.70
2018-05-12T02:36:38.285Z,35.25
2018-05-12T02:39:06.677Z,34.33
2018-05-12T02:41:35.413Z,33.97
2018-05-12T02:44:04.156Z,34.05
2018-05-12T02:46:32.869Z,35.80
2018-05-12T02:49:02.341Z,37.25
2018-05-12T02:51:31.057Z,37.47
2018-05-12T02:54:00.534Z,34.10
2018-05-12T02:56:29.302Z,33.67
2018-05-12T02:58:58.017Z,33.75
2018-05-12T03:01:26.734Z,36.20
2018-05-12T03:03:55.491Z,36.90
2018-05-12T03:06:24.197Z,35.13
2018-05-12T03:08:53.689Z,36.38
2018-05-12T03:11:22.116Z,35.53
2018-05-12T03:13:50.844Z,37.72
2018-05-12T03:16:19.580Z,36.83
2018-05-12T03:18:48.291Z,35.88
2018-05-12T03:21:17.026Z,37.38
2018-05-12T03:23:45.738Z,35.75
2018-05-12T03:26:15.213Z,38.03
2018-05-12T03:28:43.955Z,34.47
2018-05-12T03:31:12.332Z,36.10
2018-05-12T03:33:41.075Z,35.08
2018-05-12T03:36:10.740Z,36.50
2018-05-12T03:38:39.662Z,35.78
2018-05-12T03:41:08.068Z,38.08
2018-05-12T03:43:37.550Z,36.50
2018-05-12T03:46:05.626Z,40.35
2018-05-12T03:48:34.338Z,38.38
2018-05-12T03:51:03.074Z,37.10
2018-05-12T03:53:31.814Z,36.90
2018-05-12T03:56:01.299Z,36.60
2018-05-12T03:58:30.039Z,36.63
2018-05-12T04:00:58.751Z,38.55
2018-05-12T04:03:27.479Z,39.70
2018-05-12T04:06:07.331Z,38.40
2018-05-12T04:08:47.942Z,39.63
2018-05-12T04:11:27.817Z,38.58
2018-05-12T04:13:56.529Z,39.55
2018-05-12T04:16:25.245Z,40.63
2018-05-12T04:18:55.357Z,39.25
2018-05-12T04:21:24.870Z,39.30
2018-05-12T04:23:53.580Z,40.12
2018-05-12T04:26:22.281Z,39.80
2018-05-12T04:28:50.672Z,42.42
2018-05-12T04:31:19.397Z,39.88
2018-05-12T04:33:48.900Z,40.95
2018-05-12T04:36:18.381Z,39.90
2018-05-12T04:38:47.422Z,39.60
2018-05-12T04:41:16.183Z,41.42
2018-05-12T04:43:44.894Z,40.10
2018-05-12T04:46:14.421Z,41.63
2018-05-12T04:48:43.137Z,40.08
2018-05-12T04:51:11.850Z,39.95
2018-05-12T04:53:40.583Z,40.33
2018-05-12T04:56:09.292Z,39.95
2018-05-12T04:58:38.022Z,40.67
2018-05-12T05:01:07.494Z,40.97
2018-05-12T05:03:36.197Z,41.40
2018-05-12T05:06:04.599Z,41.85
2018-05-12T05:08:34.082Z,41.35
2018-05-12T05:11:02.807Z,39.95
2018-05-12T05:13:32.304Z,38.35
2018-05-12T05:16:01.548Z,38.10
2018-05-12T05:18:30.289Z,36.05
2018-05-12T05:20:59.761Z,38.95
2018-05-12T05:23:28.493Z,40.10
2018-05-12T05:25:57.200Z,38.50
2018-05-12T05:28:25.918Z,39.17
2018-05-12T05:30:53.977Z,37.42
2018-05-12T05:33:22.344Z,37.67
2018-05-12T05:35:51.097Z,36.65
2018-05-12T05:38:20.586Z,36.35
2018-05-12T05:40:49.305Z,36.53
2018-05-12T05:43:17.693Z,34.22
2018-05-12T05:45:46.411Z,36.45
2018-05-12T05:48:15.174Z,35.15
2018-05-12T05:50:43.573Z,37.63
2018-05-12T05:53:12.280Z,37.85
2018-05-12T05:55:40.673Z,37.05
2018-05-12T05:58:09.391Z,37.00
2018-05-12T06:00:38.141Z,36.42
2018-05-12T06:03:06.847Z,37.40
2018-05-12T06:05:36.324Z,37.88
2018-05-12T06:08:05.048Z,36.60
2018-05-12T06:10:34.525Z,38.10
2018-05-12T06:13:03.253Z,39.20
2018-05-12T06:15:32.739Z,37.53
2018-05-12T06:18:01.479Z,39.75
2018-05-12T07:04:12.663Z,37.70
2018-05-12T07:06:41.385Z,37.05
2018-05-12T07:09:10.185Z,38.38
2018-05-12T07:11:39.738Z,40.78
2018-05-12T07:14:08.131Z,38.15
2018-05-12T07:22:46.437Z,40.47
2018-05-12T07:25:16.864Z,37.28
2018-05-12T07:27:45.614Z,42.58
2018-05-12T07:30:14.189Z,41.25
2018-05-12T07:35:51.084Z,38.15
2018-05-12T07:38:19.837Z,40.70
2018-05-12T07:40:49.332Z,41.65
2018-05-12T07:43:18.608Z,39.10
2018-05-12T07:45:47.482Z,37.58
2018-05-12T07:48:16.199Z,37.88
2018-05-12T07:50:44.967Z,36.58
2018-05-12T07:53:13.687Z,37.90
2018-05-12T07:55:43.184Z,39.03
2018-05-12T07:58:12.831Z,39.13
2018-05-12T08:00:41.576Z,36.53
2018-05-12T08:03:10.350Z,36.42
2018-05-12T08:05:39.068Z,37.22
2018-05-12T08:08:08.664Z,36.38
2018-05-12T08:10:37.177Z,35.78
2018-05-12T08:13:06.309Z,38.05
2018-05-12T08:15:35.091Z,34.30
2018-05-12T08:18:03.821Z,35.05
2018-05-12T08:20:32.721Z,35.72
2018-05-12T08:23:01.460Z,32.65
2018-05-12T08:25:30.177Z,35.05
2018-05-12T08:27:58.922Z,31.70
2018-05-12T08:30:27.644Z,32.78
2018-05-12T08:32:56.366Z,31.02
2018-05-12T08:35:25.857Z,33.33
2018-05-12T08:37:54.582Z,31.42
2018-05-12T08:40:23.045Z,32.13
2018-05-12T08:42:51.911Z,29.67
2018-05-12T08:45:20.630Z,32.08
2018-05-12T08:47:50.135Z,29.40
2018-05-12T08:50:19.899Z,28.62
2018-05-12T08:52:48.634Z,29.17
2018-05-12T08:55:17.538Z,28.08
2018-05-12T08:57:47.158Z,31.52
2018-05-12T09:00:15.902Z,29.48
2018-05-12T09:02:44.625Z,31.83
2018-05-12T09:05:13.370Z,30.40
2018-05-12T09:07:42.078Z,30.17
2018-05-12T09:10:12.466Z,27.83
2018-05-12T09:12:41.190Z,27.13
2018-05-12T09:15:09.928Z,25.40
2018-05-12T09:17:38.656Z,25.20
2018-05-12T09:20:07.368Z,26.55
2018-05-12T09:22:36.870Z,28.48
2018-05-12T09:25:05.615Z,24.25
2018-05-12T09:27:34.349Z,25.05
2018-05-12T09:30:03.523Z,28.00
2018-05-12T09:32:32.681Z,24.92
2018-05-12T09:35:01.418Z,26.58
2018-05-12T09:37:29.833Z,24.12
2018-05-12T09:39:58.562Z,24.52
2018-05-12T09:42:27.352Z,23.12
2018-05-12T09:44:57.025Z,23.80
2018-05-12T09:47:25.399Z,24.73
2018-05-12T09:49:54.195Z,25.20
2018-05-12T09:52:22.661Z,24.67
2018-05-12T09:54:51.546Z,24.77
2018-05-12T09:57:21.034Z,23.20
2018-05-12T09:59:49.761Z,23.27
2018-05-12T10:02:18.266Z,26.47
2018-05-12T10:04:46.716Z,24.87
2018-05-12T10:07:15.394Z,22.63
2018-05-12T10:09:43.849Z,25.73
2018-05-12T10:12:13.250Z,23.50
2018-05-12T10:14:41.707Z,23.20
2018-05-12T10:17:10.244Z,25.50
2018-05-12T10:22:38.518Z,20.73
2018-05-12T10:25:06.985Z,23.20
2018-05-12T10:27:36.189Z,21.73
2018-05-12T10:30:05.075Z,21.00
2018-05-12T10:32:34.286Z,19.97
2018-05-12T10:35:02.751Z,19.77
2018-05-12T10:37:31.982Z,19.17
2018-05-12T10:40:00.435Z,19.97
2018-05-12T10:42:29.637Z,21.70
2018-05-12T10:44:58.857Z,17.60
2018-05-12T10:47:28.269Z,16.23
2018-05-12T10:49:56.725Z,15.93
2018-05-12T10:52:25.955Z,14.43
2018-05-12T10:54:54.390Z,15.50
2018-05-12T10:57:22.842Z,14.70
2018-05-12T10:59:51.297Z,13.40
2018-05-12T11:02:19.758Z,14.83
2018-05-12T11:04:48.346Z,18.43
2018-05-12T11:07:17.495Z,17.13
2018-05-12T11:09:45.638Z,17.00
2018-05-12T11:12:14.818Z,14.30
2018-05-12T11:14:43.289Z,11.67
2018-05-12T11:17:12.160Z,12.10
2018-05-12T11:19:40.605Z,15.00
2018-05-12T11:22:09.049Z,13.10
2018-05-12T11:24:37.154Z,12.77
2018-05-12T11:27:05.665Z,14.10
2018-05-12T11:29:34.111Z,15.77
2018-05-12T11:32:02.578Z,14.30
2018-05-12T11:34:31.049Z,16.43
2018-05-12T11:37:00.377Z,14.40
2018-05-12T11:39:28.505Z,15.60
2018-05-12T11:41:57.745Z,17.03
2018-05-12T11:44:26.345Z,16.90
2018-05-12T11:46:55.631Z,15.90
2018-05-12T11:49:24.680Z,14.57
2018-05-12T11:51:53.138Z,13.70
2018-05-12T11:54:21.582Z,13.90
2018-05-12T11:56:50.026Z,15.40
2018-05-12T11:59:18.483Z,13.87
2018-05-12T12:01:46.927Z,13.80
2018-05-12T12:04:15.391Z,12.17
2018-05-12T12:06:44.620Z,14.67
2018-05-12T12:09:13.069Z,13.90
2018-05-12T12:11:42.285Z,10.47
2018-05-12T12:14:10.729Z,10.50
2018-05-12T12:16:38.946Z,13.50
2018-05-12T12:19:07.503Z,13.83
2018-05-12T12:21:36.713Z,10.70
2018-05-12T12:24:05.177Z,12.73
2018-05-12T12:26:34.498Z,10.70
2018-05-12T12:29:02.968Z,12.40
2018-05-12T12:31:32.169Z,12.83
2018-05-12T12:34:01.377Z,10.33
2018-05-12T12:36:29.846Z,10.90
2018-05-12T12:38:58.069Z,11.10
2018-05-12T12:41:26.317Z,8.77
2018-05-12T12:43:54.749Z,8.03
2018-05-12T12:46:23.177Z,8.20
2018-05-12T12:48:51.285Z,7.13
2018-05-12T12:51:19.712Z,8.83
2018-05-12T12:53:48.166Z,8.83
2018-05-12T12:56:16.956Z,8.47
2018-05-12T12:58:45.403Z,9.10
2018-05-12T13:01:13.857Z,9.80
2018-05-12T13:03:43.074Z,10.00
2018-05-12T13:06:11.976Z,9.40
2018-05-12T13:08:40.439Z,9.03
2018-05-12T13:11:08.890Z,9.20
2018-05-12T13:13:38.085Z,8.33
2018-05-12T13:16:06.252Z,10.50
2018-05-12T13:18:34.870Z,9.03
2018-05-12T13:21:04.071Z,9.80
2018-05-12T13:23:33.277Z,9.00
2018-05-12T13:26:01.767Z,8.30
2018-05-12T13:28:30.209Z,7.17
2018-05-12T13:30:58.685Z,7.40
2018-05-12T13:33:27.195Z,7.10
2018-05-12T13:35:55.434Z,7.47
2018-05-12T13:38:23.887Z,7.10
2018-05-12T13:40:52.315Z,7.17
2018-05-12T13:43:20.777Z,8.10
2018-05-12T13:45:49.200Z,7.20
2018-05-12T13:48:18.394Z,8.57
2018-05-12T13:50:47.282Z,6.20
2018-05-12T13:53:16.157Z,5.40
2018-05-12T13:55:44.620Z,7.10
2018-05-12T13:58:13.225Z,6.40
2018-05-12T14:00:41.648Z,6.10
2018-05-12T14:03:10.098Z,6.40
2018-05-12T14:52:21.763Z,8.90
2018-05-12T14:54:50.187Z,8.40
2018-05-12T14:57:19.264Z,9.00
2018-05-12T14:59:47.708Z,8.00
2018-05-12T15:02:16.143Z,7.90
2018-05-12T15:04:44.604Z,8.00
2018-05-12T15:07:13.063Z,8.90
2018-05-12T15:09:41.514Z,7.37
2018-05-12T15:12:10.726Z,8.87
2018-05-12T15:14:40.104Z,7.70
2018-05-12T15:17:08.586Z,8.97
2018-05-12T15:19:37.027Z,7.97
2018-05-12T15:22:05.465Z,8.43
2018-05-12T15:24:34.698Z,7.13
2018-05-12T15:27:02.813Z,7.07
2018-05-12T15:29:31.271Z,7.57
2018-05-12T15:31:59.701Z,7.63
2018-05-12T15:34:28.922Z,7.57
2018-05-12T15:36:57.384Z,8.30
2018-05-12T15:39:26.582Z,7.40
2018-05-12T15:41:55.077Z,8.33
2018-05-12T15:44:23.517Z,8.50
2018-05-12T15:46:52.017Z,8.47
2018-05-12T15:49:20.501Z,8.40
2018-05-12T15:51:49.699Z,8.40
2018-05-12T15:54:18.918Z,7.80
2018-05-12T15:56:47.246Z,7.90
2018-05-12T15:59:15.669Z,8.63
2018-05-12T16:01:44.872Z,9.20
2018-05-12T16:04:14.936Z,8.27
2018-05-12T16:06:43.985Z,8.77
2018-05-12T16:09:12.430Z,8.33
2018-05-12T16:11:40.875Z,9.07
2018-05-12T16:14:09.322Z,9.67
2018-05-12T16:16:38.529Z,9.53
2018-05-12T16:19:07.001Z,9.13
2018-05-12T16:21:36.197Z,9.57
2018-05-12T16:24:05.399Z,9.20
2018-05-12T16:26:34.624Z,9.30
2018-05-12T16:29:03.066Z,10.20
2018-05-12T16:31:31.534Z,9.03
2018-05-12T16:33:59.836Z,9.17
2018-05-12T16:36:29.046Z,10.57
2018-05-12T16:38:58.257Z,11.33
2018-05-12T16:41:26.358Z,11.57
2018-05-12T16:43:54.835Z,11.40
2018-05-12T16:46:23.825Z,12.43
2018-05-12T16:48:52.261Z,13.53
2018-05-12T16:51:21.154Z,13.87
2018-05-12T16:53:50.253Z,12.57
2018-05-12T16:56:19.491Z,12.97
2018-05-12T16:58:49.424Z,14.40
2018-05-12T17:01:17.893Z,13.43
2018-05-12T17:03:46.360Z,13.87
2018-05-12T17:06:14.473Z,14.07
2018-05-12T17:08:43.166Z,14.00
2018-05-12T17:11:11.623Z,14.20
2018-05-12T17:13:40.863Z,15.83
2018-05-12T17:16:09.326Z,15.87
2018-05-12T17:18:37.802Z,13.80
2018-05-12T17:21:06.309Z,14.60
2018-05-12T17:23:34.818Z,13.50
2018-05-12T17:26:02.957Z,13.80
2018-05-12T17:28:31.435Z,14.67
2018-05-12T17:30:59.995Z,14.20
2018-05-12T17:33:28.684Z,15.77
2018-05-12T17:35:57.142Z,15.90
2018-05-12T17:38:25.600Z,15.73
2018-05-12T17:40:54.079Z,16.03
2018-05-12T17:43:23.307Z,14.50
2018-05-12T17:45:52.842Z,16.30
2018-05-12T17:48:21.291Z,16.30
2018-05-12T17:50:49.729Z,17.63
2018-05-12T17:53:17.860Z,17.80
2018-05-12T17:55:46.399Z,18.13
2018-05-12T17:58:15.601Z,16.93
2018-05-12T18:00:44.340Z,17.65
2018-05-12T18:03:14.746Z,16.15
2018-05-12T18:05:42.886Z,15.10
2018-05-12T18:08:12.589Z,15.57
2018-05-12T18:10:41.337Z,15.63
2018-05-12T18:13:09.785Z,12.73
2018-05-12T18:15:38.992Z,13.10
2018-05-12T18:18:07.138Z,12.60
2018-05-12T18:20:35.658Z,12.00
2018-05-12T18:23:03.821Z,12.50
2018-05-12T18:25:32.544Z,11.85
2018-05-12T18:28:00.982Z,12.30
2018-05-12T18:30:29.718Z,13.10
2018-05-12T18:32:58.432Z,12.80
2018-05-12T18:35:27.194Z,12.15
2018-05-12T18:37:55.906Z,12.77
2018-05-12T18:40:24.856Z,12.43
2018-05-12T18:42:54.357Z,12.77
2018-05-12T18:45:23.845Z,12.75
2018-05-12T18:47:52.617Z,12.95
2018-05-12T18:50:21.341Z,12.80
2018-05-12T18:52:50.819Z,15.98
2018-05-12T18:55:19.554Z,13.27
2018-05-12T18:57:48.290Z,12.73
2018-05-12T19:00:17.032Z,12.45
2018-05-12T19:02:45.413Z,13.35
2018-05-12T19:05:13.789Z,13.43
2018-05-12T19:07:42.510Z,14.32
2018-05-12T19:10:10.889Z,14.50
2018-05-12T19:12:39.641Z,14.23
2018-05-12T19:15:08.353Z,13.48
2018-05-12T19:17:37.106Z,14.05
2018-05-12T19:20:05.933Z,14.55
2018-05-12T19:22:34.739Z,15.00
2018-05-12T19:25:03.275Z,15.30
2018-05-12T19:27:32.754Z,15.70
2018-05-12T19:30:01.475Z,16.45
2018-05-12T19:32:30.208Z,17.87
2018-05-12T19:34:58.935Z,18.17
2018-05-12T19:37:28.491Z,17.80
2018-05-12T19:39:56.875Z,17.48
2018-05-12T19:42:25.596Z,18.60
2018-05-12T19:44:54.333Z,19.95
2018-05-12T19:47:23.051Z,19.58
2018-05-12T19:49:51.800Z,20.35
2018-05-12T19:52:20.512Z,20.75
2018-05-12T19:54:49.969Z,20.85
2018-05-12T19:57:19.459Z,20.92
2018-05-12T19:59:48.954Z,21.80
2018-05-12T20:02:17.686Z,23.27
2018-05-12T20:04:46.405Z,21.42
2018-05-12T20:07:15.146Z,23.23
2018-05-12T20:09:44.676Z,22.02
2018-05-12T20:12:13.584Z,22.45
2018-05-12T20:14:42.304Z,20.50
2018-05-12T20:17:11.047Z,21.55
2018-05-12T20:19:39.776Z,23.15
2018-05-12T20:22:08.556Z,23.60
2018-05-12T20:24:38.173Z,23.58
2018-05-12T20:27:06.878Z,23.00
2018-05-12T20:29:36.362Z,24.70
2018-05-12T20:32:05.092Z,24.45
2018-05-12T20:34:34.601Z,24.63
2018-05-12T20:37:04.253Z,24.23
2018-05-12T20:39:33.077Z,27.10
2018-05-12T20:42:01.646Z,26.12
2018-05-12T20:44:30.389Z,24.58
2018-05-12T20:46:59.118Z,26.15
2018-05-12T20:49:27.845Z,26.05
2018-05-12T20:51:57.401Z,23.30
2018-05-12T20:54:26.117Z,26.90
2018-05-12T20:56:54.931Z,26.73
2018-05-12T20:59:24.422Z,23.75
2018-05-12T21:01:53.254Z,26.00
2018-05-12T21:04:21.966Z,25.70
2018-05-12T21:06:50.811Z,27.48
2018-05-12T21:09:19.534Z,25.15
2018-05-12T21:11:48.279Z,25.42
2018-05-12T21:14:17.863Z,25.55
2018-05-12T21:16:46.685Z,26.08
2018-05-12T21:19:16.184Z,26.80
2018-05-12T21:21:45.687Z,27.83
2018-05-12T21:24:15.192Z,26.62
2018-05-12T21:26:44.666Z,25.70
2018-05-12T21:29:13.388Z,26.10
2018-05-12T21:31:42.887Z,26.02
2018-05-12T21:34:12.361Z,26.45
2018-05-12T21:36:41.089Z,26.12
2018-05-12T21:39:10.570Z,26.02
2018-05-12T21:41:39.068Z,25.83
2018-05-12T21:44:07.794Z,28.00
2018-05-12T21:46:36.505Z,28.20
2018-05-12T21:49:04.939Z,28.25
2018-05-12T21:51:34.419Z,28.48
2018-05-12T21:54:03.143Z,27.85
2018-05-12T21:56:31.915Z,27.33
2018-05-12T21:59:01.481Z,28.10
2018-05-12T22:01:30.334Z,28.48
2018-05-12T22:03:59.053Z,28.70
2018-05-12T22:06:27.771Z,30.88
2018-05-12T22:08:56.485Z,29.58
2018-05-12T22:11:25.980Z,29.73
2018-05-12T22:13:55.483Z,27.67
2018-05-12T22:16:24.957Z,29.77
2018-05-12T22:18:54.143Z,31.62
2018-05-12T22:21:22.869Z,29.75
2018-05-12T22:23:51.598Z,28.38
2018-05-12T22:26:21.218Z,27.98
2018-05-12T22:28:49.966Z,30.62
2018-05-12T22:31:19.454Z,30.58
2018-05-12T22:33:48.188Z,28.73
2018-05-12T22:36:16.917Z,28.70
2018-05-12T22:38:45.765Z,29.42
2018-05-12T22:41:14.551Z,30.95
2018-05-12T22:43:43.294Z,30.67
2018-05-12T22:46:12.031Z,32.78
2018-05-12T22:48:40.799Z,31.25
2018-05-12T22:51:10.326Z,30.33
2018-05-12T22:53:39.058Z,30.73
2018-05-12T22:56:07.784Z,31.30
2018-05-12T22:58:37.313Z,31.67
2018-05-12T23:01:05.740Z,32.92
2018-05-12T23:03:34.933Z,31.87
2018-05-12T23:06:03.374Z,33.03
2018-05-12T23:08:33.042Z,32.25
2018-05-12T23:11:04.069Z,32.72
2018-05-12T23:13:32.792Z,33.50
2018-05-12T23:16:02.392Z,31.85
2018-05-12T23:18:31.928Z,35.83
2018-05-12T23:21:00.796Z,35.40
2018-05-12T23:23:30.265Z,34.08
2018-05-12T23:25:58.977Z,33.95
2018-05-12T23:28:28.508Z,35.00
2018-05-12T23:30:57.735Z,36.20
2018-05-12T23:33:26.261Z,35.50
2018-05-12T23:35:55.762Z,34.72
2018-05-12T23:38:25.262Z,36.58
2018-05-12T23:40:53.998Z,35.80
2018-05-12T23:43:22.731Z,37.05
2018-05-12T23:45:51.468Z,36.17
2018-05-12T23:48:20.173Z,36.33
2018-05-12T23:50:48.922Z,38.45
2018-05-12T23:53:18.419Z,37.55
2018-05-12T23:55:47.906Z,41.25
2018-05-12T23:58:16.707Z,38.25
